Time;durP1;ratioP1;P1;durP2;ratioP2;P2;SDS_P1;SDS_P2;PMS_P1;PMS_P2;Temp;Humidity;BMP_temperature;BMP_pressure;BME280_temperature;BME280_humidity;BME280_pressure;Samples;Min_cycle;Max_cycle;Signal;HPM_P1;HPM_P2
2022/11/05 00:10:50;;;;;;;3.77;2.90;;;8.70;99.90;;;;;;5055021;28;20413;-75
2022/11/05 00:19:07;;;;;;;1.93;1.83;;;8.70;99.90;;;;;;5026864;28;20429;-76
2022/11/05 00:27:03;;;;;;;7.93;1.97;;;8.70;99.90;;;;;;5069180;28;20473;-75
2022/11/05 00:29:29;;;;;;;2.50;1.97;;;8.60;99.90;;;;;;5069393;28;20422;-76
2022/11/05 00:31:54;;;;;;;2.00;1.40;;;8.60;99.90;;;;;;5069232;28;20464;-76
2022/11/05 00:34:20;;;;;;;2.20;1.77;;;8.60;99.90;;;;;;5068881;28;20195;-76
2022/11/05 00:36:46;;;;;;;1.57;1.47;;;8.60;99.90;;;;;;5050764;28;20239;-76
2022/11/05 00:39:11;;;;;;;2.07;1.87;;;8.60;99.90;;;;;;5069107;28;20278;-75
2022/11/05 00:41:37;;;;;;;4.90;1.80;;;8.50;99.90;;;;;;5050958;28;20187;-75
2022/11/05 00:46:47;;;;;;;2.03;1.83;;;8.50;99.90;;;;;;5068698;28;20701;-76
2022/11/05 00:49:30;;;;;;;2.23;1.73;;;8.70;99.90;;;;;;5050770;28;20422;-76
2022/11/05 00:52:54;;;;;;;1.23;1.13;;;8.50;99.90;;;;;;5054492;28;20183;-76
2022/11/05 00:54:41;;;;;;;1.63;1.50;;;8.50;99.90;;;;;;5068667;28;20455;-76
2022/11/05 00:57:07;;;;;;;3.83;1.83;;;8.60;99.90;;;;;;5050638;28;20516;-75
2022/11/05 00:59:32;;;;;;;1.93;1.63;;;8.50;99.90;;;;;;5068739;28;20202;-75
2022/11/05 01:01:58;;;;;;;1.80;1.70;;;8.50;99.90;;;;;;5068499;28;20271;-75
2022/11/05 01:04:24;;;;;;;2.70;1.60;;;8.50;99.90;;;;;;5068311;28;20752;-76
2022/11/05 01:06:49;;;;;;;3.43;2.20;;;8.50;99.90;;;;;;5049989;28;20472;-75
2022/11/05 01:09:15;;;;;;;2.93;2.10;;;8.50;99.90;;;;;;5068340;28;20195;-75
2022/11/05 01:11:41;;;;;;;2.30;1.50;;;8.50;99.90;;;;;;5068559;28;20214;-75
2022/11/05 01:14:09;;;;;;;7.53;1.90;;;8.50;99.90;;;;;;5050316;28;20201;-76
2022/11/05 01:16:36;;;;;;;2.13;1.93;;;8.60;99.90;;;;;;5068525;28;20421;-75
2022/11/05 01:19:03;;;;;;;2.03;1.73;;;8.60;99.90;;;;;;5049962;28;20451;-75
2022/11/05 01:21:29;;;;;;;1.97;1.60;;;8.60;99.90;;;;;;5068605;28;20469;-75
2022/11/05 01:23:54;;;;;;;2.53;2.40;;;8.60;99.90;;;;;;5049782;28;20489;-75
2022/11/05 01:26:20;;;;;;;3.00;1.90;;;8.60;99.90;;;;;;5068197;28;20203;-75
2022/11/05 01:28:53;;;;;;;3.83;2.50;;;8.60;99.90;;;;;;5068162;28;20179;-76
2022/11/05 01:31:19;;;;;;;3.60;2.17;;;8.60;99.90;;;;;;5049983;28;20187;-76
2022/11/05 01:33:45;;;;;;;2.60;2.20;;;8.70;99.90;;;;;;5068065;28;20441;-76
2022/11/05 01:36:11;;;;;;;6.57;2.90;;;8.70;99.90;;;;;;5067997;28;20984;-75
2022/11/05 01:38:37;;;;;;;2.93;2.63;;;8.70;99.90;;;;;;5052008;28;20905;-75
2022/11/05 01:41:03;;;;;;;2.83;2.33;;;8.70;99.90;;;;;;5037312;28;20666;-76
2022/11/05 01:43:47;;;;;;;3.47;3.17;;;8.80;99.90;;;;;;5072029;28;20866;-75
2022/11/05 01:46:14;;;;;;;2.97;2.67;;;8.60;99.90;;;;;;5053777;28;20472;-76
2022/11/05 01:48:40;;;;;;;4.53;2.60;;;8.70;99.90;;;;;;5053667;28;20520;-76
2022/11/05 01:51:10;;;;;;;4.20;2.40;;;8.60;99.90;;;;;;5053918;28;20559;-75
2022/11/05 01:53:44;;;;;;;2.30;2.13;;;8.60;99.90;;;;;;5053785;28;20202;-76
2022/11/05 01:56:26;;;;;;;3.03;2.10;;;8.70;99.90;;;;;;5071663;28;20430;-76
2022/11/05 01:58:59;;;;;;;2.37;2.17;;;8.60;99.90;;;;;;5071855;28;20453;-76
2022/11/05 02:01:25;;;;;;;2.23;2.03;;;8.60;99.90;;;;;;5054484;28;20948;-76
2022/11/05 02:03:54;;;;;;;2.27;2.07;;;8.70;99.90;;;;;;5071666;28;20444;-76
2022/11/05 02:06:20;;;;;;;2.10;1.90;;;8.70;99.90;;;;;;5053632;28;20461;-76
2022/11/05 02:09:04;;;;;;;2.17;1.93;;;8.70;99.90;;;;;;5053533;28;20423;-76
2022/11/05 02:11:29;;;;;;;2.07;1.97;;;8.60;99.90;;;;;;5053649;28;20424;-76
2022/11/05 02:13:55;;;;;;;2.53;2.17;;;8.60;99.90;;;;;;5053389;28;20437;-76
2022/11/05 02:16:38;;;;;;;2.40;2.20;;;8.60;99.90;;;;;;5053457;28;20597;-76
2022/11/05 02:19:26;;;;;;;2.60;1.90;;;8.60;99.90;;;;;;5053381;28;20186;-76
2022/11/05 02:22:09;;;;;;;2.07;1.97;;;8.60;99.90;;;;;;5071384;28;20470;-76
2022/11/05 02:25:08;;;;;;;2.20;2.10;;;8.60;99.90;;;;;;5071325;28;20438;-75
2022/11/05 02:28:11;;;;;;;5.33;2.60;;;8.60;99.90;;;;;;5071087;28;21095;-75
2022/11/05 02:30:49;;;;;;;3.07;2.70;;;8.60;99.90;;;;;;5071165;28;20413;-75
2022/11/05 02:33:29;;;;;;;4.70;2.40;;;8.60;99.90;;;;;;5071441;28;20463;-76
2022/11/05 02:36:07;;;;;;;3.73;2.80;;;8.60;99.90;;;;;;5053195;28;20421;-75
2022/11/05 02:38:57;;;;;;;3.20;2.23;;;8.50;99.90;;;;;;5071265;28;20936;-76
2022/11/05 02:41:33;;;;;;;2.73;2.53;;;8.50;99.90;;;;;;5071286;28;20422;-76
2022/11/05 02:44:13;;;;;;;2.77;2.47;;;8.50;99.90;;;;;;5071130;28;20521;-75
2022/11/05 02:47:07;;;;;;;2.93;2.73;;;8.50;99.90;;;;;;5071031;28;20464;-75
2022/11/05 02:50:04;;;;;;;4.03;2.60;;;8.50;99.90;;;;;;5051417;28;20436;-75
2022/11/05 02:52:56;;;;;;;3.30;2.80;;;8.50;99.90;;;;;;5070990;28;20499;-76
2022/11/05 02:55:43;;;;;;;2.73;2.53;;;8.40;99.90;;;;;;5052839;28;20490;-75
2022/11/05 02:58:09;;;;;;;2.90;2.70;;;8.50;99.90;;;;;;5070695;28;20419;-75
2022/11/05 03:00:51;;;;;;;2.40;2.20;;;8.50;99.90;;;;;;5071221;28;20421;-75
2022/11/05 03:03:25;;;;;;;3.83;2.60;;;8.40;99.90;;;;;;5071026;28;20961;-76
2022/11/05 03:06:20;;;;;;;3.03;2.73;;;8.40;99.90;;;;;;5070636;28;20929;-75
2022/11/05 03:09:09;;;;;;;2.70;2.50;;;8.50;99.90;;;;;;5070615;28;20456;-76
2022/11/05 03:11:52;;;;;;;3.40;3.10;;;8.50;99.90;;;;;;5041400;28;20425;-76
2022/11/05 03:14:49;;;;;;;5.90;2.90;;;8.50;99.90;;;;;;5070373;28;20438;-76
2022/11/05 03:17:38;;;;;;;2.60;2.40;;;8.30;99.90;;;;;;5059504;28;20461;-75
2022/11/05 03:20:14;;;;;;;3.40;3.10;;;8.40;99.90;;;;;;5071175;28;20764;-76
2022/11/05 03:23:05;;;;;;;3.43;2.43;;;8.50;99.90;;;;;;5070113;28;20417;-75
2022/11/05 03:25:35;;;;;;;2.53;2.43;;;8.40;99.90;;;;;;5061699;28;20440;-76
2022/11/05 03:28:05;;;;;;;3.13;2.90;;;8.50;99.90;;;;;;5070343;28;20469;-77
2022/11/05 03:30:34;;;;;;;2.80;2.60;;;8.50;99.90;;;;;;5069892;28;20414;-76
2022/11/05 03:33:05;;;;;;;3.07;2.87;;;8.50;99.90;;;;;;5052047;28;20530;-77
2022/11/05 03:35:38;;;;;;;3.10;2.67;;;8.50;99.90;;;;;;5070035;28;20414;-75
2022/11/05 03:38:19;;;;;;;3.13;2.87;;;8.50;99.90;;;;;;5070055;28;20482;-75
2022/11/05 03:40:47;;;;;;;3.53;2.83;;;8.50;99.90;;;;;;5069991;28;20432;-76
2022/11/05 03:43:13;;;;;;;2.47;2.27;;;8.50;99.90;;;;;;5070067;28;20442;-75
2022/11/05 03:45:49;;;;;;;2.90;2.47;;;8.50;99.90;;;;;;5069891;28;20451;-76
2022/11/05 03:48:17;;;;;;;4.57;3.20;;;8.40;99.90;;;;;;5069779;28;20436;-76
2022/11/05 03:50:54;;;;;;;2.93;2.73;;;8.40;99.90;;;;;;5069889;28;20409;-75
2022/11/05 03:53:35;;;;;;;3.27;2.97;;;8.40;99.90;;;;;;5069609;28;20464;-76
2022/11/05 03:56:18;;;;;;;3.33;3.03;;;8.40;99.90;;;;;;5069565;28;20428;-76
2022/11/05 03:58:45;;;;;;;4.17;3.17;;;8.40;99.90;;;;;;5051243;28;20988;-75
2022/11/05 04:01:11;;;;;;;3.47;3.00;;;8.50;99.90;;;;;;5051121;28;20429;-75
2022/11/05 04:03:37;;;;;;;3.40;3.20;;;8.40;99.90;;;;;;5069498;28;20450;-75
2022/11/05 04:14:22;;;;;;;3.80;3.50;;;8.50;99.90;;;;;;5049421;28;20524;-77
2022/11/05 04:17:08;;;;;;;4.20;3.30;;;8.40;99.90;;;;;;5069333;28;20993;-76
2022/11/05 04:25:04;;;;;;;3.30;3.00;;;8.40;99.90;;;;;;5069937;28;20968;-76
2022/11/05 04:27:30;;;;;;;5.13;2.57;;;8.40;99.90;;;;;;5069179;28;20465;-76
2022/11/05 04:32:39;;;;;;;5.40;3.03;;;8.50;99.90;;;;;;5054325;28;20236;-76
2022/11/05 04:35:05;;;;;;;2.97;2.70;;;8.40;99.90;;;;;;5051307;28;20858;-76
2022/11/05 04:37:31;;;;;;;7.50;3.33;;;8.40;99.90;;;;;;5051080;28;20198;-76
2022/11/05 04:39:56;;;;;;;3.00;2.33;;;8.50;99.90;;;;;;5069191;28;20191;-76
2022/11/05 04:42:22;;;;;;;7.80;3.20;;;8.40;99.90;;;;;;5069178;28;20190;-76
2022/11/05 04:44:48;;;;;;;2.53;2.33;;;8.40;99.90;;;;;;5069176;28;20306;-76
2022/11/05 04:47:13;;;;;;;2.80;2.60;;;8.40;99.90;;;;;;5034619;28;20579;-76
2022/11/05 04:49:39;;;;;;;2.17;1.97;;;8.40;99.90;;;;;;5051292;28;20194;-76
2022/11/05 04:52:04;;;;;;;1.47;1.37;;;8.40;99.90;;;;;;5069415;28;20605;-76
2022/11/05 04:54:30;;;;;;;1.70;1.60;;;8.30;99.90;;;;;;5069537;28;20301;-76
2022/11/05 04:56:56;;;;;;;1.90;1.70;;;8.30;99.90;;;;;;5051625;28;20422;-76
2022/11/05 04:59:21;;;;;;;2.80;1.90;;;8.40;99.90;;;;;;5034936;28;20199;-76
2022/11/05 05:01:51;;;;;;;3.10;1.80;;;8.40;99.90;;;;;;5073265;22;20777;-76
2022/11/05 05:04:17;;;;;;;1.50;1.40;;;8.50;99.90;;;;;;5089729;28;20178;-76
2022/11/05 05:06:43;;;;;;;2.33;2.13;;;8.50;99.90;;;;;;5089608;28;20830;-76
2022/11/05 05:09:08;;;;;;;3.27;2.73;;;8.50;99.90;;;;;;5071638;28;20437;-76
2022/11/05 05:11:34;;;;;;;5.93;3.10;;;8.50;99.90;;;;;;5072317;28;20569;-76
2022/11/05 05:13:59;;;;;;;10.93;3.23;;;8.50;99.90;;;;;;5055179;28;20175;-77
2022/11/05 05:16:26;;;;;;;3.40;3.10;;;8.50;99.90;;;;;;5090374;28;20188;-77
2022/11/05 05:18:53;;;;;;;5.57;3.73;;;8.40;99.90;;;;;;5090141;28;20557;-77
2022/11/05 05:21:39;;;;;;;3.97;3.50;;;8.50;99.90;;;;;;5090194;28;20507;-78
2022/11/05 05:24:07;;;;;;;2.43;2.23;;;8.50;99.90;;;;;;5090300;28;20759;-78
2022/11/05 05:26:35;;;;;;;2.37;2.17;;;8.40;99.90;;;;;;5071741;28;20551;-79
2022/11/05 05:29:01;;;;;;;2.07;1.80;;;8.40;99.90;;;;;;5055383;28;20967;-78
2022/11/05 05:31:26;;;;;;;2.40;2.10;;;8.40;99.90;;;;;;5090913;28;20497;-80
2022/11/05 05:33:53;;;;;;;2.77;2.43;;;8.50;99.90;;;;;;5055584;28;20659;-81
2022/11/05 05:36:22;;;;;;;3.00;2.33;;;8.50;99.90;;;;;;5072640;28;20188;-79
2022/11/05 05:38:48;;;;;;;4.23;2.97;;;8.60;99.90;;;;;;5073064;28;20800;-80
2022/11/05 05:41:14;;;;;;;2.93;2.50;;;8.40;99.90;;;;;;5091112;28;20427;-80
2022/11/05 05:43:39;;;;;;;2.90;2.70;;;8.40;99.90;;;;;;5073038;28;20408;-80
2022/11/05 05:46:08;;;;;;;1.80;1.70;;;8.40;99.90;;;;;;5072583;28;20224;-79
2022/11/05 05:48:34;;;;;;;1.50;1.10;;;8.40;99.90;;;;;;5055702;28;20203;-79
2022/11/05 05:51:10;;;;;;;1.60;1.43;;;8.40;99.90;;;;;;5090712;28;20412;-80
2022/11/05 05:53:36;;;;;;;2.40;1.70;;;8.30;99.90;;;;;;5072612;28;20636;-80
2022/11/05 05:56:03;;;;;;;1.47;1.20;;;8.30;99.90;;;;;;5055783;28;20439;-79
2022/11/05 05:58:35;;;;;;;2.37;1.93;;;8.30;99.90;;;;;;5055650;28;20821;-80
2022/11/05 06:01:07;;;;;;;1.33;1.23;;;8.30;99.90;;;;;;5057225;28;20822;-79
2022/11/05 06:03:33;;;;;;;3.30;1.07;;;8.30;99.90;;;;;;5056508;28;20428;-80
2022/11/05 06:06:04;;;;;;;1.50;1.40;;;8.30;99.90;;;;;;5091534;28;20423;-80
2022/11/05 06:08:30;;;;;;;1.40;1.30;;;8.30;99.90;;;;;;5073464;28;20824;-80
2022/11/05 06:10:56;;;;;;;1.87;1.77;;;8.30;99.90;;;;;;5074008;28;20416;-80
2022/11/05 06:13:22;;;;;;;1.70;1.60;;;8.50;99.90;;;;;;5056892;28;20846;-81
2022/11/05 06:15:48;;;;;;;2.03;1.80;;;8.30;99.90;;;;;;5057214;28;20603;-80
2022/11/05 06:18:13;;;;;;;2.17;2.07;;;8.30;99.90;;;;;;5056954;28;20295;-80
2022/11/05 06:20:39;;;;;;;2.53;2.33;;;8.30;99.90;;;;;;5073863;28;20551;-79
2022/11/05 06:23:05;;;;;;;2.50;2.30;;;8.20;99.90;;;;;;5073456;28;20185;-79
2022/11/05 06:25:31;;;;;;;2.03;1.93;;;8.30;99.90;;;;;;5060149;28;20535;-79
2022/11/05 06:27:56;;;;;;;2.80;2.50;;;8.20;99.90;;;;;;5077098;28;20472;-81
2022/11/05 06:30:22;;;;;;;2.97;2.70;;;8.20;99.90;;;;;;5060483;28;20180;-81
2022/11/05 06:32:48;;;;;;;2.10;1.90;;;8.30;99.90;;;;;;5044047;28;20183;-80
2022/11/05 06:35:14;;;;;;;2.20;2.00;;;8.30;99.90;;;;;;5044619;28;21099;-79
2022/11/05 06:37:39;;;;;;;2.20;2.00;;;8.30;99.90;;;;;;5061318;28;20194;-79
2022/11/05 06:40:06;;;;;;;3.63;2.20;;;8.30;99.90;;;;;;5077788;28;20715;-79
2022/11/05 06:42:31;;;;;;;1.60;1.50;;;8.30;99.90;;;;;;5095396;28;20709;-79
2022/11/05 06:44:57;;;;;;;1.50;1.20;;;8.20;99.90;;;;;;5077681;28;20413;-79
2022/11/05 06:47:22;;;;;;;1.43;1.33;;;8.30;99.90;;;;;;5061313;28;20259;-79
2022/11/05 06:49:48;;;;;;;1.40;1.30;;;8.30;99.90;;;;;;5077567;28;20187;-79
2022/11/05 06:52:14;;;;;;;1.30;1.20;;;8.30;99.90;;;;;;5044286;28;20174;-79
2022/11/05 06:54:41;;;;;;;2.60;1.70;;;8.30;99.90;;;;;;5077477;28;20417;-79
2022/11/05 06:57:10;;;;;;;1.73;1.63;;;8.30;99.90;;;;;;5078438;28;20449;-79
2022/11/05 06:59:37;;;;;;;1.70;1.60;;;8.40;99.90;;;;;;5078085;28;20424;-79
2022/11/05 07:02:03;;;;;;;1.60;1.50;;;8.40;99.90;;;;;;5060117;28;20436;-79
2022/11/05 07:04:29;;;;;;;3.53;2.00;;;8.40;99.90;;;;;;5076723;28;21262;-79
2022/11/05 07:06:54;;;;;;;2.03;1.87;;;8.40;99.90;;;;;;5077002;28;20460;-79
2022/11/05 07:09:20;;;;;;;2.50;2.30;;;8.40;99.90;;;;;;5076703;28;20542;-79
2022/11/05 07:11:46;;;;;;;2.20;2.00;;;8.40;99.90;;;;;;5076651;28;20175;-79
2022/11/05 07:14:11;;;;;;;3.27;2.10;;;8.60;99.90;;;;;;5042785;28;20676;-79
2022/11/05 07:16:37;;;;;;;6.03;2.90;;;8.40;99.90;;;;;;5076722;28;20191;-79
2022/11/05 07:19:02;;;;;;;2.90;2.17;;;8.50;99.90;;;;;;5076851;28;20206;-79
2022/11/05 07:21:28;;;;;;;1.97;1.87;;;8.70;99.90;;;;;;5058962;28;20184;-79
2022/11/05 07:23:53;;;;;;;2.23;1.30;;;8.50;99.90;;;;;;5075444;28;20182;-81
2022/11/05 07:26:19;;;;;;;1.63;1.53;;;8.40;99.90;;;;;;5042300;28;20214;-80
2022/11/05 07:28:45;;;;;;;1.53;1.43;;;8.50;99.90;;;;;;5076580;28;20231;-79
2022/11/05 07:31:10;;;;;;;1.80;1.70;;;8.50;99.90;;;;;;5043672;28;20674;-79
2022/11/05 07:33:36;;;;;;;1.77;1.67;;;8.60;99.90;;;;;;5077398;28;20191;-79
2022/11/05 07:36:01;;;;;;;1.43;1.33;;;8.60;99.90;;;;;;5059467;28;20236;-79
2022/11/05 07:38:27;;;;;;;2.10;1.20;;;8.60;99.90;;;;;;5042532;28;20760;-81
2022/11/05 07:40:53;;;;;;;2.23;1.53;;;8.70;99.90;;;;;;5114031;28;20164;-80
2022/11/05 07:43:18;;;;;;;1.47;1.37;;;8.60;99.90;;;;;;5081974;28;20186;-81
2022/11/05 07:45:46;;;;;;;3.00;1.20;;;8.60;99.90;;;;;;5082190;28;20433;-82
2022/11/05 07:48:12;;;;;;;1.37;1.17;;;8.60;99.90;;;;;;5064829;28;20304;-81
2022/11/05 07:50:37;;;;;;;1.20;0.90;;;8.60;99.90;;;;;;5081626;28;20474;-82
2022/11/05 07:53:06;;;;;;;1.13;1.03;;;8.60;99.90;;;;;;5064296;28;20183;-80
2022/11/05 07:55:33;;;;;;;1.00;0.90;;;8.70;99.90;;;;;;5081098;28;20526;-81
2022/11/05 07:57:59;;;;;;;1.40;0.80;;;8.70;99.90;;;;;;5064065;28;20459;-80
2022/11/05 08:00:26;;;;;;;1.50;0.90;;;8.50;99.90;;;;;;5098929;28;20440;-81
2022/11/05 08:03:16;;;;;;;1.30;0.83;;;8.50;99.90;;;;;;5050729;28;20233;-82
2022/11/05 08:05:44;;;;;;;1.20;1.10;;;8.50;99.90;;;;;;5083695;28;20416;-80
2022/11/05 08:08:12;;;;;;;0.90;0.73;;;8.50;99.90;;;;;;5082496;28;20484;-80
2022/11/05 08:10:38;;;;;;;0.80;0.67;;;8.50;99.90;;;;;;5098709;28;20461;-80
2022/11/05 08:13:05;;;;;;;1.27;1.17;;;8.50;99.90;;;;;;5079644;28;20507;-81
2022/11/05 08:15:30;;;;;;;1.30;1.20;;;8.50;99.90;;;;;;5065045;28;20837;-81
2022/11/05 08:17:57;;;;;;;1.67;1.07;;;8.60;99.90;;;;;;5100448;28;20440;-81
2022/11/05 08:20:23;;;;;;;2.70;0.90;;;8.50;99.90;;;;;;5048659;28;20433;-79
2022/11/05 08:22:49;;;;;;;0.93;0.83;;;8.70;99.90;;;;;;5064914;28;20424;-82
2022/11/05 08:25:15;;;;;;;0.87;0.80;;;8.50;99.90;;;;;;5048881;28;20233;-79
2022/11/05 08:27:41;;;;;;;2.50;0.90;;;8.70;99.90;;;;;;5081881;28;20206;-81
2022/11/05 08:30:08;;;;;;;0.80;0.80;;;8.60;99.90;;;;;;5082116;28;20421;-80
2022/11/05 08:32:33;;;;;;;3.30;3.10;;;8.60;99.90;;;;;;5081712;28;20182;-80
2022/11/05 08:34:59;;;;;;;1.27;1.13;;;8.60;99.90;;;;;;5064477;28;20417;-80
2022/11/05 08:37:25;;;;;;;1.20;1.10;;;8.60;99.90;;;;;;5064060;28;20444;-81
2022/11/05 08:39:50;;;;;;;1.40;1.30;;;8.60;99.90;;;;;;5079672;28;20189;-79
2022/11/05 08:42:16;;;;;;;1.23;1.13;;;8.80;99.90;;;;;;5046236;28;20328;-81
2022/11/05 08:44:41;;;;;;;1.93;1.27;;;8.50;99.90;;;;;;5077985;28;20194;-79
2022/11/05 08:47:07;;;;;;;1.60;1.50;;;8.50;99.90;;;;;;5043471;28;20675;-79
2022/11/05 08:49:33;;;;;;;2.20;2.00;;;8.60;99.90;;;;;;5056968;28;20293;-78
2022/11/05 08:51:58;;;;;;;1.80;1.70;;;8.70;99.90;;;;;;5073631;28;20186;-79
2022/11/05 08:54:24;;;;;;;1.30;1.20;;;8.70;99.90;;;;;;5092102;28;20199;-79
2022/11/05 08:56:49;;;;;;;2.73;1.20;;;8.70;99.90;;;;;;5092265;28;20229;-79
2022/11/05 08:59:15;;;;;;;1.97;1.60;;;8.60;99.90;;;;;;5057582;28;20298;-79
2022/11/05 09:01:41;;;;;;;21.73;11.20;;;8.80;99.90;;;;;;5057275;28;20209;-79
2022/11/05 09:04:07;;;;;;;59.13;24.87;;;8.80;99.90;;;;;;5057300;28;20198;-79
2022/11/05 09:06:32;;;;;;;19.10;14.30;;;8.80;99.90;;;;;;5041090;28;20221;-81
2022/11/05 09:08:58;;;;;;;39.63;24.83;;;8.80;99.90;;;;;;5057478;28;20453;-79
2022/11/05 09:11:24;;;;;;;27.80;13.83;;;8.80;99.90;;;;;;5057851;28;20186;-79
2022/11/05 09:13:49;;;;;;;6.50;4.63;;;8.80;99.90;;;;;;5074347;28;20193;-79
2022/11/05 09:16:21;;;;;;;2.00;1.90;;;8.80;99.90;;;;;;5057429;28;20654;-79
2022/11/05 09:18:48;;;;;;;2.00;1.90;;;8.80;99.90;;;;;;5074439;28;20202;-79
2022/11/05 09:21:14;;;;;;;9.77;6.87;;;8.90;99.90;;;;;;5074285;28;20502;-79
2022/11/05 09:23:40;;;;;;;1.70;1.60;;;8.90;99.90;;;;;;5074354;28;20431;-79
2022/11/05 09:26:06;;;;;;;1.60;1.50;;;9.00;99.90;;;;;;5057874;28;20846;-79
2022/11/05 09:28:32;;;;;;;1.83;1.33;;;8.90;99.90;;;;;;5057507;28;20195;-79
2022/11/05 09:30:57;;;;;;;19.87;8.17;;;9.00;99.90;;;;;;5040860;28;20555;-79
2022/11/05 09:33:24;;;;;;;4.87;2.40;;;9.30;99.90;;;;;;5074029;28;20467;-79
2022/11/05 09:35:50;;;;;;;51.40;20.97;;;9.20;99.90;;;;;;5074386;28;20175;-78
2022/11/05 09:38:16;;;;;;;28.43;14.17;;;9.40;99.90;;;;;;5075975;28;20468;-79
2022/11/05 09:41:02;;;;;;;45.37;22.20;;;9.30;99.90;;;;;;5059623;28;20424;-82
2022/11/05 09:43:34;;;;;;;2.80;2.60;;;9.40;99.90;;;;;;5078118;28;20174;-79
2022/11/05 09:46:12;;;;;;;18.87;10.10;;;9.50;99.90;;;;;;5077357;28;20520;-81
2022/11/05 09:48:41;;;;;;;37.83;18.50;;;9.50;99.90;;;;;;5095380;28;20429;-79
2022/11/05 09:51:09;;;;;;;6.00;5.03;;;9.50;99.90;;;;;;5076297;28;20499;-79
2022/11/05 09:53:39;;;;;;;4.90;4.40;;;9.30;99.90;;;;;;5076308;28;20471;-78
2022/11/05 09:56:23;;;;;;;12.00;6.63;;;9.30;99.90;;;;;;5094524;28;20428;-80
2022/11/05 09:59:11;;;;;;;30.23;15.83;;;9.30;99.90;;;;;;5095031;28;20470;-80
2022/11/05 10:01:37;;;;;;;11.77;8.97;;;9.40;99.90;;;;;;5080730;28;20478;-80
2022/11/05 10:04:08;;;;;;;9.67;7.03;;;9.50;99.90;;;;;;5061340;28;20465;-80
2022/11/05 10:06:37;;;;;;;10.87;6.40;;;9.50;99.90;;;;;;5077743;28;20186;-79
2022/11/05 10:09:09;;;;;;;8.47;5.07;;;9.50;99.90;;;;;;5061095;28;20512;-79
2022/11/05 10:11:40;;;;;;;6.80;4.73;;;9.50;99.90;;;;;;5078864;28;20409;-79
2022/11/05 10:14:27;;;;;;;4.73;4.30;;;9.40;99.90;;;;;;5077868;28;20401;-79
2022/11/05 10:17:24;;;;;;;8.67;4.93;;;9.40;99.90;;;;;;5077262;28;20427;-83
2022/11/05 10:20:14;;;;;;;7.37;5.50;;;9.40;99.90;;;;;;5068733;28;20425;-80
2022/11/05 10:22:39;;;;;;;9.83;5.60;;;9.60;99.90;;;;;;5076889;28;20429;-80
2022/11/05 10:25:17;;;;;;;8.10;5.53;;;9.60;99.90;;;;;;5060186;28;20491;-79
2022/11/05 10:27:53;;;;;;;8.67;4.70;;;9.60;99.90;;;;;;5076613;28;20214;-79
2022/11/05 10:30:20;;;;;;;5.63;5.03;;;9.50;99.90;;;;;;5077343;28;20477;-79
2022/11/05 10:32:47;;;;;;;4.70;4.07;;;9.60;99.90;;;;;;5077131;28;20456;-81
2022/11/05 10:35:21;;;;;;;7.13;4.40;;;9.50;99.90;;;;;;5077232;28;20416;-79
2022/11/05 10:37:52;;;;;;;4.33;3.93;;;9.80;99.90;;;;;;5077535;28;20448;-80
2022/11/05 10:40:26;;;;;;;6.03;4.57;;;9.90;99.90;;;;;;5077693;28;20456;-79
2022/11/05 10:43:16;;;;;;;4.50;3.60;;;10.00;99.90;;;;;;5076904;28;20413;-79
2022/11/05 10:45:51;;;;;;;5.83;4.70;;;10.00;99.90;;;;;;5094312;28;20546;-80
2022/11/05 10:48:55;;;;;;;3.87;3.33;;;10.10;99.90;;;;;;5076489;28;20464;-79
2022/11/05 10:51:21;;;;;;;12.20;7.17;;;10.10;99.90;;;;;;5094795;28;20429;-79
2022/11/05 10:53:52;;;;;;;3.43;3.10;;;10.00;99.90;;;;;;5059923;28;20469;-79
2022/11/05 10:56:34;;;;;;;10.50;5.20;;;10.00;99.90;;;;;;5077301;28;20245;-80
2022/11/05 10:59:02;;;;;;;6.27;4.23;;;9.90;99.90;;;;;;5084926;28;20444;-80
2022/11/05 11:01:28;;;;;;;7.40;4.57;;;10.00;99.90;;;;;;5077899;28;20445;-79
2022/11/05 11:04:06;;;;;;;4.67;3.83;;;10.00;99.90;;;;;;5060470;28;20409;-80
2022/11/05 11:06:36;;;;;;;3.70;3.40;;;9.90;99.90;;;;;;5059440;28;20456;-79
2022/11/05 11:09:06;;;;;;;5.20;3.00;;;9.80;99.90;;;;;;5094518;28;20438;-79
2022/11/05 11:11:39;;;;;;;6.93;4.40;;;9.80;99.90;;;;;;5074938;28;20454;-79
2022/11/05 11:14:16;;;;;;;4.40;3.10;;;9.80;99.90;;;;;;5076473;28;20977;-79
2022/11/05 11:16:49;;;;;;;5.90;3.47;;;9.70;99.90;;;;;;5094889;28;20513;-79
2022/11/05 11:19:25;;;;;;;4.40;3.63;;;9.70;99.90;;;;;;5060359;28;20426;-79
2022/11/05 11:22:20;;;;;;;6.90;4.37;;;9.70;99.90;;;;;;5076334;28;20430;-80
2022/11/05 11:24:52;;;;;;;5.20;4.30;;;9.70;99.90;;;;;;5067922;28;20852;-80
2022/11/05 11:27:24;;;;;;;3.70;3.40;;;9.60;99.90;;;;;;5059437;28;20522;-79
2022/11/05 11:29:56;;;;;;;11.23;4.20;;;9.80;99.90;;;;;;5093694;28;20482;-79
2022/11/05 11:32:27;;;;;;;5.77;4.30;;;9.80;99.90;;;;;;5075338;28;20409;-80
2022/11/05 11:34:54;;;;;;;4.60;4.03;;;9.60;99.90;;;;;;5093364;28;20478;-79
2022/11/05 11:37:26;;;;;;;7.03;4.40;;;9.60;99.90;;;;;;5058555;28;20453;-80
2022/11/05 11:40:16;;;;;;;9.93;5.30;;;9.60;99.90;;;;;;5093299;28;20414;-79
2022/11/05 11:42:49;;;;;;;7.10;4.30;;;9.60;99.90;;;;;;5060708;28;20417;-79
2022/11/05 11:45:32;;;;;;;8.90;6.00;;;9.60;99.90;;;;;;5074899;28;20926;-79
2022/11/05 11:48:03;;;;;;;11.13;5.20;;;9.60;99.90;;;;;;5092752;28;20461;-79
2022/11/05 11:50:36;;;;;;;8.23;5.37;;;9.50;99.90;;;;;;5075363;28;20505;-79
2022/11/05 11:53:19;;;;;;;13.60;5.70;;;9.60;99.90;;;;;;5092788;28;20408;-79
2022/11/05 11:55:54;;;;;;;6.70;3.80;;;9.60;99.90;;;;;;5074630;28;20437;-82
2022/11/05 11:58:41;;;;;;;5.23;4.73;;;9.60;99.90;;;;;;5093977;28;20515;-79
2022/11/05 12:01:43;;;;;;;7.40;4.60;;;9.70;99.90;;;;;;5094045;28;20453;-79
2022/11/05 12:04:27;;;;;;;13.43;8.10;;;9.80;99.90;;;;;;5094446;28;20878;-79
2022/11/05 12:06:55;;;;;;;18.73;9.70;;;9.90;99.90;;;;;;5095643;28;20495;-79
2022/11/05 12:09:47;;;;;;;12.20;7.47;;;9.90;99.90;;;;;;5075585;28;20420;-81
2022/11/05 12:12:15;;;;;;;9.90;4.70;;;9.90;99.90;;;;;;5075828;28;20467;-79
2022/11/05 12:14:41;;;;;;;7.93;5.30;;;9.90;99.90;;;;;;5075700;28;20518;-79
2022/11/05 12:17:09;;;;;;;8.77;6.30;;;9.90;99.90;;;;;;5075391;28;20491;-79
2022/11/05 12:19:50;;;;;;;8.50;4.80;;;10.00;99.90;;;;;;5075449;28;20241;-82
2022/11/05 12:22:42;;;;;;;6.40;4.80;;;9.80;99.90;;;;;;5075066;28;20505;-79
2022/11/05 12:25:26;;;;;;;6.23;4.30;;;9.80;99.90;;;;;;5075499;28;21302;-79
2022/11/05 12:28:17;;;;;;;5.23;4.63;;;9.70;99.90;;;;;;5093339;28;20523;-80
2022/11/05 12:30:48;;;;;;;7.40;5.70;;;9.70;99.90;;;;;;5093334;28;20429;-80
2022/11/05 12:33:26;;;;;;;9.40;5.60;;;9.70;99.90;;;;;;5075316;28;20424;-81
2022/11/05 12:36:17;;;;;;;8.57;6.17;;;9.70;99.90;;;;;;5075589;28;20506;-79
2022/11/05 12:39:11;;;;;;;8.50;5.27;;;9.60;99.90;;;;;;5093550;28;20439;-83
2022/11/05 12:41:59;;;;;;;11.67;6.23;;;9.60;99.90;;;;;;5075260;28;20402;-79
2022/11/05 12:44:40;;;;;;;15.57;6.70;;;9.60;99.90;;;;;;5075316;28;20424;-79
2022/11/05 12:47:30;;;;;;;8.73;6.17;;;9.60;99.90;;;;;;5074820;28;20451;-79
2022/11/05 12:50:01;;;;;;;9.30;5.83;;;9.60;99.90;;;;;;5074917;28;20483;-80
2022/11/05 12:52:57;;;;;;;9.90;6.20;;;9.60;99.90;;;;;;5093569;28;20980;-79
2022/11/05 12:55:32;;;;;;;7.60;6.43;;;9.70;99.90;;;;;;5074707;28;20416;-79
2022/11/05 12:58:07;;;;;;;8.17;6.20;;;9.80;99.90;;;;;;5092976;28;20441;-79
2022/11/05 13:00:35;;;;;;;9.10;6.87;;;9.90;99.90;;;;;;5074921;28;20453;-78
2022/11/05 13:03:36;;;;;;;13.00;7.90;;;9.90;99.90;;;;;;5074129;28;20473;-79
2022/11/05 13:06:42;;;;;;;11.47;5.30;;;9.90;99.90;;;;;;5032807;28;21177;-79
2022/11/05 13:09:35;;;;;;;12.83;6.97;;;9.90;99.90;;;;;;4974002;28;20452;-79
2022/11/05 13:12:09;;;;;;;11.00;7.53;;;9.80;99.90;;;;;;4991836;28;20399;-79
2022/11/05 13:14:46;;;;;;;9.50;7.50;;;9.90;99.90;;;;;;5063897;28;20418;-80
2022/11/05 13:17:16;;;;;;;12.47;9.23;;;9.90;99.90;;;;;;5077955;28;20462;-82
2022/11/05 13:20:05;;;;;;;10.97;7.87;;;9.90;99.90;;;;;;5061638;28;20443;-83
2022/11/05 13:23:08;;;;;;;9.30;7.07;;;9.90;99.90;;;;;;5096517;28;20905;-80
2022/11/05 13:25:39;;;;;;;12.67;6.97;;;9.80;99.90;;;;;;5077165;28;20420;-83
2022/11/05 13:28:36;;;;;;;11.20;5.80;;;9.80;99.90;;;;;;5059516;28;20477;-83
2022/11/05 13:31:08;;;;;;;11.37;6.70;;;9.70;99.90;;;;;;5076831;28;20407;-83
2022/11/05 13:33:37;;;;;;;11.87;7.57;;;9.60;99.90;;;;;;5075855;28;20413;-81
2022/11/05 13:38:59;;;;;;;13.20;7.87;;;9.60;99.90;;;;;;5098792;28;20431;-82
2022/11/05 13:42:05;;;;;;;12.80;7.47;;;9.70;99.90;;;;;;5082034;28;20453;-81
2022/11/05 13:45:01;;;;;;;11.60;7.80;;;9.70;99.90;;;;;;5082350;28;20426;-80
2022/11/05 13:47:33;;;;;;;11.03;7.47;;;9.60;99.90;;;;;;5080809;28;20482;-82
2022/11/05 13:50:26;;;;;;;14.03;7.93;;;9.60;99.90;;;;;;5073759;28;20422;-81
2022/11/05 13:53:26;;;;;;;13.50;7.80;;;9.60;99.90;;;;;;5073075;28;20784;-79
2022/11/05 13:56:08;;;;;;;14.47;8.83;;;9.60;99.90;;;;;;5091173;28;20944;-79
2022/11/05 13:59:06;;;;;;;12.80;8.90;;;9.50;99.90;;;;;;5090808;28;20432;-79
2022/11/05 14:01:53;;;;;;;15.90;9.77;;;9.50;99.90;;;;;;5014271;28;1113405;-79
2022/11/05 14:04:27;;;;;;;11.60;7.87;;;9.50;99.90;;;;;;5073654;28;20173;-79
2022/11/05 14:07:03;;;;;;;68.47;33.43;;;9.60;99.90;;;;;;5091590;28;20461;-80